Time;durP1;ratioP1;P1;durP2;ratioP2;P2;SDS_P1;SDS_P2;PMS_P1;PMS_P2;Temp;Humidity;BMP_temperature;BMP_pressure;BME280_temperature;BME280_humidity;BME280_pressure;Samples;Min_cycle;Max_cycle;Signal;HPM_P1;HPM_P2
2021/07/20 00:00:26;;;;;;;17.73;13.10;;;;;;;16.56;72.77;100032.72;4973357;28;20039;-71
2021/07/20 00:02:55;;;;;;;16.50;12.75;;;;;;;16.59;71.93;100032.47;4973708;28;20498;-71
2021/07/20 00:05:23;;;;;;;21.30;13.80;;;;;;;16.62;70.47;100032.28;4955720;28;20031;-72
2021/07/20 00:07:54;;;;;;;19.63;13.60;;;;;;;16.64;70.30;100039.22;4972329;28;20449;-73
2021/07/20 00:10:29;;;;;;;18.80;13.60;;;;;;;16.67;70.18;100032.81;4954726;28;20031;-73
2021/07/20 00:12:54;;;;;;;16.48;13.38;;;;;;;16.61;71.45;100047.38;4972067;28;20090;-73
2021/07/20 00:15:20;;;;;;;18.00;13.18;;;;;;;16.53;71.33;100037.28;4955309;28;20043;-73
2021/07/20 00:17:47;;;;;;;16.67;13.80;;;;;;;16.45;71.83;100036.97;4971530;28;20031;-73
2021/07/20 00:20:15;;;;;;;18.83;13.90;;;;;;;16.41;72.06;100037.28;4954868;28;20578;-73
2021/07/20 00:22:41;;;;;;;20.33;14.20;;;;;;;16.31;73.10;100037.06;4938916;28;20411;-72
2021/07/20 00:25:09;;;;;;;24.88;15.35;;;;;;;16.13;74.04;100035.69;4973480;28;20039;-73
2021/07/20 00:27:34;;;;;;;18.92;13.57;;;;;;;16.04;74.27;100040.66;4974297;28;20073;-72
2021/07/20 00:30:00;;;;;;;20.65;14.77;;;;;;;15.98;74.25;100034.94;4973852;28;20066;-72
2021/07/20 00:32:25;;;;;;;20.20;13.50;;;;;;;15.94;74.74;100038.75;4972661;28;20035;-73
2021/07/20 00:34:51;;;;;;;25.25;15.38;;;;;;;15.86;74.83;100040.09;4973816;28;20039;-73
2021/07/20 00:37:16;;;;;;;18.98;15.07;;;;;;;15.78;75.05;100036.28;4972657;28;20117;-72
2021/07/20 00:39:42;;;;;;;20.20;12.65;;;;;;;15.74;75.07;100040.94;4973349;28;20046;-74
2021/07/20 00:42:07;;;;;;;20.50;14.18;;;;;;;15.76;75.05;100043.50;4974008;28;20039;-74
2021/07/20 00:44:33;;;;;;;19.45;13.82;;;;;;;15.77;74.97;100039.88;4938734;28;20039;-74
2021/07/20 00:46:58;;;;;;;19.48;13.82;;;;;;;15.77;74.88;100042.53;4972750;28;20045;-73
2021/07/20 00:49:23;;;;;;;23.90;15.43;;;;;;;15.74;75.22;100040.94;4973218;28;20030;-71
2021/07/20 00:51:49;;;;;;;22.02;15.10;;;;;;;15.64;74.84;100045.97;4972605;28;20065;-72
2021/07/20 00:54:14;;;;;;;22.50;14.95;;;;;;;15.58;75.49;100034.88;4990541;28;20406;-74
2021/07/20 00:56:40;;;;;;;18.65;13.23;;;;;;;15.50;75.57;100040.72;4990651;28;20038;-72
2021/07/20 00:59:06;;;;;;;16.73;12.93;;;;;;;15.43;75.62;100042.06;4990799;28;20497;-72
2021/07/20 01:01:32;;;;;;;17.63;13.27;;;;;;;15.35;75.77;100037.25;4948167;28;20116;-73
2021/07/20 01:03:57;;;;;;;19.08;14.07;;;;;;;15.30;75.79;100033.19;4990336;28;20078;-73
2021/07/20 01:06:24;;;;;;;23.75;15.15;;;;;;;15.30;75.39;100034.03;4972659;28;20117;-73
2021/07/20 01:08:51;;;;;;;22.58;13.68;;;;;;;15.25;75.71;100031.69;4990440;28;20166;-73
2021/07/20 01:11:18;;;;;;;17.92;13.18;;;;;;;15.23;75.63;100030.94;4990482;28;20679;-73
2021/07/20 01:13:46;;;;;;;16.70;11.80;;;;;;;15.23;75.12;100038.91;4989915;28;20441;-73
2021/07/20 01:16:12;;;;;;;19.48;13.18;;;;;;;15.19;75.24;100034.75;4990202;28;20042;-74
2021/07/20 01:18:38;;;;;;;19.08;11.43;;;;;;;15.15;74.87;100040.34;4990279;28;20490;-73
2021/07/20 01:21:05;;;;;;;28.50;14.57;;;;;;;15.09;75.46;100041.59;4989904;28;20045;-73
2021/07/20 01:23:36;;;;;;;20.48;14.68;;;;;;;15.03;75.55;100042.81;4990034;28;20868;-73
2021/07/20 01:26:01;;;;;;;20.25;14.40;;;;;;;15.01;75.76;100046.53;4990268;28;20049;-73
2021/07/20 01:28:29;;;;;;;19.60;14.45;;;;;;;14.92;76.19;100050.63;4989836;28;20038;-73
2021/07/20 01:31:04;;;;;;;19.73;14.00;;;;;;;14.88;75.84;100041.16;4991202;28;20100;-73
2021/07/20 01:33:32;;;;;;;21.58;14.18;;;;;;;14.88;75.76;100042.97;4973572;28;20113;-73
2021/07/20 01:36:00;;;;;;;18.35;13.38;;;;;;;14.76;76.57;100045.41;4989777;28;20034;-73
2021/07/20 01:38:27;;;;;;;17.20;12.40;;;;;;;14.73;76.46;100045.63;4989854;28;20034;-73
2021/07/20 01:40:57;;;;;;;18.80;11.77;;;;;;;14.74;76.16;100038.50;4989718;28;20050;-75
2021/07/20 01:43:25;;;;;;;20.67;12.90;;;;;;;14.70;76.28;100040.50;4990741;28;20089;-72
2021/07/20 01:45:54;;;;;;;23.35;12.77;;;;;;;14.60;76.46;100042.88;4992187;28;20035;-72
2021/07/20 01:48:21;;;;;;;17.92;13.57;;;;;;;14.58;76.66;100051.88;4990262;28;20066;-72
2021/07/20 01:50:47;;;;;;;19.48;14.10;;;;;;;14.49;77.08;100053.25;4989668;28;20069;-73
2021/07/20 01:53:14;;;;;;;17.60;11.95;;;;;;;14.45;76.81;100059.72;4986288;28;20149;-72
2021/07/20 01:55:39;;;;;;;22.02;13.52;;;;;;;14.45;76.74;100053.53;4989776;28;20038;-73
2021/07/20 01:58:05;;;;;;;18.48;12.70;;;;;;;14.45;76.69;100053.53;4990316;28;20043;-74
2021/07/20 02:00:31;;;;;;;17.27;13.60;;;;;;;14.43;76.34;100053.63;4972301;28;20414;-74
2021/07/20 02:08:44;;;;;;;20.13;12.70;;;;;;;14.33;76.32;100050.69;4994032;28;20092;-72
2021/07/20 02:11:14;;;;;;;21.98;12.88;;;;;;;14.25;76.87;100050.31;4993477;28;20609;-73
2021/07/20 02:13:45;;;;;;;20.10;12.95;;;;;;;14.21;76.50;100054.09;4993550;28;20483;-74
2021/07/20 02:16:14;;;;;;;19.67;12.40;;;;;;;14.16;77.09;100045.56;4993180;28;20034;-72
2021/07/20 02:18:45;;;;;;;19.83;13.38;;;;;;;14.10;77.33;100045.91;4975899;28;20034;-72
2021/07/20 02:21:12;;;;;;;15.77;12.07;;;;;;;14.08;76.82;100048.66;4993541;28;20038;-74
2021/07/20 02:23:38;;;;;;;15.93;12.65;;;;;;;14.06;76.72;100045.25;4993927;28;20027;-72
2021/07/20 02:26:05;;;;;;;18.13;12.85;;;;;;;14.02;76.63;100045.50;4993577;28;20519;-72
2021/07/20 02:28:34;;;;;;;15.27;10.38;;;;;;;14.01;77.28;100042.03;4993223;28;20038;-72
2021/07/20 02:31:00;;;;;;;18.15;12.07;;;;;;;14.01;76.67;100039.38;4993434;28;20117;-72
2021/07/20 02:33:27;;;;;;;15.43;11.57;;;;;;;13.98;77.57;100049.28;4992600;28;20034;-73
2021/07/20 02:35:53;;;;;;;15.98;12.02;;;;;;;13.98;77.18;100041.34;4993269;28;20158;-72
2021/07/20 02:38:19;;;;;;;20.08;12.90;;;;;;;13.93;77.18;100045.13;4992807;28;20142;-73
2021/07/20 02:40:47;;;;;;;16.98;10.95;;;;;;;13.90;76.85;100044.44;4993186;28;20458;-72
2021/07/20 02:43:14;;;;;;;18.38;12.05;;;;;;;13.87;77.41;100040.19;4992959;28;20034;-73
2021/07/20 02:45:41;;;;;;;16.00;11.32;;;;;;;13.86;76.80;100045.59;4992859;28;20102;-73
2021/07/20 02:48:07;;;;;;;16.80;12.13;;;;;;;13.89;76.65;100046.25;4990327;28;20061;-73
2021/07/20 02:50:34;;;;;;;18.27;13.77;;;;;;;13.83;76.96;100038.66;4992766;28;20494;-73
2021/07/20 02:53:00;;;;;;;19.50;12.45;;;;;;;13.79;77.17;100041.59;4993181;28;20113;-73
2021/07/20 02:55:27;;;;;;;15.80;12.18;;;;;;;13.77;76.65;100035.50;4992313;28;20046;-73
2021/07/20 02:57:53;;;;;;;15.07;11.63;;;;;;;13.68;76.63;100037.75;4991844;28;20061;-73
2021/07/20 03:00:20;;;;;;;20.42;11.63;;;;;;;13.66;77.25;100038.75;4992694;28;20491;-73
2021/07/20 03:02:47;;;;;;;16.77;11.73;;;;;;;13.67;77.16;100030.75;4991349;28;20038;-72
2021/07/20 03:05:14;;;;;;;15.32;12.73;;;;;;;13.65;77.12;100037.06;4992806;28;20042;-73
2021/07/20 03:07:45;;;;;;;19.73;11.77;;;;;;;13.58;77.33;100036.56;4992597;28;20060;-73
2021/07/20 03:10:11;;;;;;;16.15;10.85;;;;;;;13.55;77.14;100036.75;4993201;28;20031;-73
2021/07/20 03:12:40;;;;;;;16.58;11.82;;;;;;;13.52;77.12;100034.28;4993169;28;20042;-72
2021/07/20 03:15:06;;;;;;;17.40;10.70;;;;;;;13.47;76.67;100034.53;4988752;28;20046;-73
2021/07/20 03:17:32;;;;;;;16.83;10.38;;;;;;;13.45;77.37;100038.22;5005116;28;20042;-73
2021/07/20 03:20:00;;;;;;;16.95;10.82;;;;;;;13.43;77.17;100035.66;5012323;28;20038;-71
2021/07/20 03:22:29;;;;;;;18.08;11.85;;;;;;;13.40;77.24;100033.19;4991112;28;20030;-73
2021/07/20 03:24:57;;;;;;;15.45;11.00;;;;;;;13.34;77.15;100030.91;4995037;28;20068;-73
2021/07/20 03:27:28;;;;;;;15.38;10.75;;;;;;;13.33;77.46;100031.81;4994718;28;20046;-72
2021/07/20 03:29:53;;;;;;;17.27;11.52;;;;;;;13.29;77.48;100035.56;4994810;28;20597;-75
2021/07/20 03:32:20;;;;;;;16.40;10.60;;;;;;;13.29;77.10;100030.28;4993568;28;20101;-74
2021/07/20 03:34:46;;;;;;;17.83;11.60;;;;;;;13.26;77.48;100033.06;4993099;28;20030;-74
2021/07/20 03:37:12;;;;;;;16.83;11.07;;;;;;;13.24;78.00;100029.66;4993236;28;20114;-73
2021/07/20 03:39:39;;;;;;;18.75;11.85;;;;;;;13.20;77.43;100033.44;4993752;28;20023;-72
2021/07/20 03:42:07;;;;;;;16.02;11.30;;;;;;;13.17;77.29;100026.53;4993025;28;20034;-72
2021/07/20 03:44:33;;;;;;;26.98;13.57;;;;;;;13.11;77.88;100026.84;4992170;28;20069;-74
2021/07/20 03:46:58;;;;;;;16.42;11.40;;;;;;;13.08;78.00;100017.28;4991750;28;20313;-73
2021/07/20 03:49:26;;;;;;;21.98;12.15;;;;;;;13.09;78.18;100020.78;4989195;28;20084;-73
2021/07/20 03:51:53;;;;;;;14.10;10.80;;;;;;;13.09;77.39;100031.38;4972643;28;20125;-74
2021/07/20 03:54:20;;;;;;;19.73;12.35;;;;;;;13.08;77.28;100021.72;4972377;28;20514;-73
2021/07/20 03:56:48;;;;;;;16.33;11.50;;;;;;;13.07;77.68;100026.19;4973030;28;20094;-73
2021/07/20 03:59:14;;;;;;;21.48;13.95;;;;;;;13.03;77.62;100029.06;4974786;28;20494;-73
2021/07/20 04:01:44;;;;;;;15.15;10.70;;;;;;;13.02;77.26;100033.53;4955821;28;20034;-73
2021/07/20 04:04:13;;;;;;;17.23;12.15;;;;;;;13.04;77.81;100031.66;4973507;28;20039;-73
2021/07/20 04:06:40;;;;;;;16.13;12.05;;;;;;;13.05;76.88;100030.69;4973990;28;20054;-74
2021/07/20 04:09:07;;;;;;;14.70;10.23;;;;;;;13.04;76.72;100039.59;4975740;28;20039;-74
2021/07/20 04:11:35;;;;;;;19.05;13.05;;;;;;;13.05;76.96;100032.50;4973594;28;20123;-73
2021/07/20 04:14:01;;;;;;;16.98;11.50;;;;;;;13.01;77.56;100037.09;4973121;28;20539;-73
2021/07/20 04:16:27;;;;;;;18.20;10.02;;;;;;;12.99;76.99;100035.47;4972430;28;20069;-73
2021/07/20 04:18:53;;;;;;;19.42;12.25;;;;;;;12.99;77.59;100035.47;4972069;28;20487;-73
2021/07/20 04:21:19;;;;;;;16.05;11.93;;;;;;;12.99;77.81;100031.03;4972249;28;20546;-72
2021/07/20 04:23:45;;;;;;;16.95;10.55;;;;;;;13.02;76.99;100032.66;4971816;28;20042;-73
2021/07/20 04:26:13;;;;;;;16.15;9.98;;;;;;;13.04;77.29;100033.41;4970815;28;20043;-72
2021/07/20 04:28:39;;;;;;;20.30;12.52;;;;;;;13.00;77.31;100035.41;4972178;28;20109;-72
2021/07/20 04:31:06;;;;;;;15.07;10.77;;;;;;;12.99;77.00;100032.81;4971631;28;20082;-72
2021/07/20 04:33:34;;;;;;;21.27;13.15;;;;;;;13.01;77.37;100037.09;4971347;28;20039;-73
2021/07/20 04:36:00;;;;;;;15.95;10.88;;;;;;;12.99;77.24;100030.19;4972289;28;20476;-72
2021/07/20 04:38:30;;;;;;;20.20;12.73;;;;;;;13.00;77.07;100034.56;4974307;28;20046;-72
2021/07/20 04:40:57;;;;;;;17.60;12.07;;;;;;;13.01;76.82;100038.88;4971576;28;20491;-72
2021/07/20 04:43:23;;;;;;;14.25;11.32;;;;;;;13.01;77.57;100038.88;4972268;28;20046;-72
2021/07/20 04:45:57;;;;;;;21.90;11.02;;;;;;;13.03;77.35;100035.22;5029352;28;20410;-70
2021/07/20 04:48:23;;;;;;;19.45;10.27;;;;;;;13.04;78.05;100034.31;5026208;28;20095;-72
2021/07/20 04:50:51;;;;;;;17.25;10.20;;;;;;;13.09;77.25;100037.53;5030837;28;20037;-72
2021/07/20 04:53:18;;;;;;;15.73;11.45;;;;;;;13.11;77.36;100046.22;5023219;28;20038;-72
2021/07/20 04:55:45;;;;;;;19.55;12.43;;;;;;;13.15;77.25;100035.50;5006635;28;20069;-72
2021/07/20 04:58:15;;;;;;;16.27;11.02;;;;;;;13.19;77.14;100037.88;4989051;28;20034;-70
2021/07/20 05:00:43;;;;;;;15.20;10.52;;;;;;;13.26;77.14;100043.66;5004567;28;20037;-71
2021/07/20 05:03:09;;;;;;;18.02;11.93;;;;;;;13.31;76.79;100034.56;5006111;28;20042;-71
2021/07/20 05:05:38;;;;;;;16.08;10.52;;;;;;;13.37;77.30;100048.41;5006227;28;20033;-71
2021/07/20 05:08:07;;;;;;;14.70;11.57;;;;;;;13.44;76.56;100045.31;5006799;28;20057;-72
2021/07/20 05:10:35;;;;;;;16.35;12.18;;;;;;;13.53;76.80;100044.78;5005678;28;20030;-72
2021/07/20 05:13:00;;;;;;;16.38;12.07;;;;;;;13.61;76.84;100048.78;5004670;28;20125;-72
2021/07/20 05:15:26;;;;;;;17.60;12.70;;;;;;;13.66;76.75;100049.38;5007546;28;20034;-72
2021/07/20 05:17:52;;;;;;;15.05;11.40;;;;;;;13.79;76.62;100039.78;5005772;28;20113;-72
2021/07/20 05:20:18;;;;;;;18.23;11.13;;;;;;;13.92;75.64;100051.34;5005323;28;20672;-72
2021/07/20 05:22:45;;;;;;;34.30;14.10;;;;;;;14.06;75.80;100047.06;5006858;28;20041;-72
2021/07/20 05:25:11;;;;;;;21.92;12.70;;;;;;;14.21;75.27;100051.44;5006575;28;20430;-72
2021/07/20 05:27:42;;;;;;;21.88;13.20;;;;;;;14.38;74.97;100048.63;5013168;28;20041;-72
2021/07/20 05:30:08;;;;;;;17.67;13.32;;;;;;;14.48;74.72;100053.38;5006489;28;20546;-71
2021/07/20 05:32:39;;;;;;;17.00;11.55;;;;;;;14.58;74.25;100054.53;5006067;28;20044;-71
2021/07/20 05:35:09;;;;;;;18.00;12.30;;;;;;;14.63;74.80;100054.25;5006913;28;20037;-72
2021/07/20 05:37:36;;;;;;;16.88;11.98;;;;;;;14.70;74.60;100053.78;5007305;28;20034;-72
2021/07/20 05:40:07;;;;;;;16.58;10.55;;;;;;;14.85;73.79;100062.59;5007208;28;20112;-72
2021/07/20 05:42:33;;;;;;;16.33;11.48;;;;;;;14.94;73.63;100064.66;5006778;28;20034;-72
2021/07/20 05:44:59;;;;;;;19.95;12.60;;;;;;;15.01;73.32;100067.75;5005871;28;20091;-72
2021/07/20 05:47:26;;;;;;;16.48;11.77;;;;;;;15.09;72.82;100064.63;5007012;28;20030;-72
2021/07/20 05:49:52;;;;;;;22.08;11.73;;;;;;;15.15;72.67;100072.22;5006956;28;20034;-72
2021/07/20 05:52:18;;;;;;;20.15;12.35;;;;;;;15.27;72.32;100071.44;5006629;28;20038;-72
2021/07/20 05:54:45;;;;;;;17.13;12.07;;;;;;;15.39;71.76;100069.78;5006033;28;20113;-73
2021/07/20 05:57:12;;;;;;;15.82;12.48;;;;;;;15.46;71.24;100074.63;5026457;28;20040;-72
2021/07/20 05:59:39;;;;;;;19.35;12.95;;;;;;;15.55;71.17;100078.47;5032262;28;20026;-72
2021/07/20 06:02:11;;;;;;;22.60;13.38;;;;;;;15.61;71.06;100075.41;5032215;28;20032;-71
2021/07/20 06:04:37;;;;;;;22.00;12.52;;;;;;;15.68;70.41;100079.38;5032055;28;20501;-72
2021/07/20 06:07:04;;;;;;;19.83;13.27;;;;;;;15.78;70.17;100068.19;5031686;28;20148;-72
2021/07/20 06:09:33;;;;;;;22.67;14.27;;;;;;;15.87;69.98;100081.72;5032042;28;20135;-71
2021/07/20 06:12:00;;;;;;;16.90;12.15;;;;;;;16.00;69.89;100084.41;5031289;28;20429;-72
2021/07/20 06:14:29;;;;;;;17.63;13.85;;;;;;;16.04;67.29;100080.56;5030641;28;20033;-72
2021/07/20 06:16:55;;;;;;;25.55;13.40;;;;;;;16.13;68.07;100083.56;5031517;28;20037;-71
2021/07/20 06:19:21;;;;;;;19.02;13.25;;;;;;;16.26;67.32;100081.78;5031856;28;20101;-71
2021/07/20 06:21:47;;;;;;;30.25;17.05;;;;;;;16.40;65.87;100086.16;5031924;28;20049;-71
2021/07/20 06:24:13;;;;;;;23.75;15.50;;;;;;;16.51;65.97;100091.59;5031723;28;20039;-72
2021/07/20 06:26:40;;;;;;;31.80;17.40;;;;;;;16.61;65.02;100087.31;5031594;28;20041;-71
2021/07/20 06:29:11;;;;;;;25.38;15.80;;;;;;;16.74;64.79;100088.19;5031353;28;20120;-71
2021/07/20 06:31:44;;;;;;;27.35;15.05;;;;;;;16.82;63.97;100095.66;5031792;28;20033;-71
2021/07/20 06:34:09;;;;;;;28.15;16.40;;;;;;;16.85;64.10;100097.25;5031393;28;20047;-72
2021/07/20 06:36:35;;;;;;;37.08;16.50;;;;;;;17.00;63.50;100092.66;5031229;28;20513;-71
2021/07/20 06:39:03;;;;;;;33.13;18.90;;;;;;;17.08;63.44;100096.50;5031199;28;20454;-71
2021/07/20 06:41:30;;;;;;;25.25;16.42;;;;;;;17.09;62.11;100100.84;5031476;28;20370;-71
2021/07/20 06:43:58;;;;;;;35.72;17.02;;;;;;;17.14;61.85;100098.69;5031150;28;20485;-71
2021/07/20 06:46:24;;;;;;;27.05;17.95;;;;;;;17.21;62.58;100092.94;5031592;28;20033;-71
2021/07/20 06:48:50;;;;;;;28.30;17.20;;;;;;;17.30;62.58;100093.13;5013051;28;20033;-72
2021/07/20 06:51:16;;;;;;;24.77;17.52;;;;;;;17.29;61.63;100091.41;5031559;28;20107;-72
2021/07/20 06:53:41;;;;;;;24.63;16.80;;;;;;;17.36;62.37;100091.84;5031572;28;20116;-72
2021/07/20 06:56:10;;;;;;;25.15;16.45;;;;;;;17.53;61.57;100095.94;5031026;28;20111;-72
2021/07/20 06:58:40;;;;;;;28.38;17.65;;;;;;;17.69;60.92;100090.31;5030739;28;20814;-72
2021/07/20 07:01:07;;;;;;;23.45;16.40;;;;;;;17.76;61.10;100088.91;4996531;28;20560;-58
2021/07/20 07:03:45;;;;;;;24.92;15.45;;;;;;;18.01;60.62;100101.28;4991880;28;20030;-58
2021/07/20 07:06:12;;;;;;;24.98;17.77;;;;;;;18.26;59.15;100099.41;5002266;28;20034;-58
2021/07/20 07:08:39;;;;;;;23.00;14.63;;;;;;;18.42;58.96;100098.13;5010137;28;20044;-51
2021/07/20 07:11:05;;;;;;;21.85;15.35;;;;;;;18.47;58.73;100110.28;4987806;28;20037;-55
2021/07/20 07:13:33;;;;;;;30.08;18.23;;;;;;;18.45;58.72;100105.06;5010502;28;20494;-50
2021/07/20 07:15:59;;;;;;;22.67;13.82;;;;;;;18.56;58.67;100105.09;5010968;28;20034;-56
2021/07/20 07:18:26;;;;;;;27.77;15.18;;;;;;;18.70;58.29;100105.81;5010264;28;20049;-54
2021/07/20 07:20:52;;;;;;;23.17;16.67;;;;;;;18.86;57.73;100104.53;5010961;28;20034;-54
2021/07/20 07:23:18;;;;;;;24.08;16.00;;;;;;;18.94;57.66;100108.44;5011572;28;20034;-56
2021/07/20 07:25:52;;;;;;;24.20;16.45;;;;;;;19.06;57.19;100108.31;4998304;28;20073;-58
2021/07/20 07:28:19;;;;;;;26.20;14.38;;;;;;;19.12;57.22;100106.94;4991118;28;20657;-55
2021/07/20 07:30:47;;;;;;;22.35;15.60;;;;;;;19.24;56.97;100108.66;5010621;28;20049;-58
2021/07/20 07:33:14;;;;;;;23.83;16.10;;;;;;;19.40;56.82;100107.44;5004519;28;20038;-58
2021/07/20 07:35:39;;;;;;;22.52;15.93;;;;;;;19.59;55.69;100104.97;5001469;28;20579;-58
2021/07/20 07:38:06;;;;;;;22.52;14.52;;;;;;;19.82;55.51;100103.09;5004137;28;20037;-58
2021/07/20 07:40:33;;;;;;;21.90;15.68;;;;;;;20.05;53.73;100103.84;5002621;28;20086;-58
2021/07/20 07:43:01;;;;;;;29.52;14.02;;;;;;;20.17;52.32;100108.16;5004542;28;20648;-56
2021/07/20 07:45:28;;;;;;;22.63;14.30;;;;;;;20.56;51.38;100104.94;5003857;28;20049;-64
2021/07/20 07:47:54;;;;;;;22.60;13.82;;;;;;;20.77;50.70;100108.47;5004515;28;20038;-71
2021/07/20 07:50:20;;;;;;;21.65;12.18;;;;;;;20.69;50.42;100110.09;5005408;28;20034;-71
2021/07/20 07:52:45;;;;;;;16.50;12.35;;;;;;;20.88;50.73;100102.16;4993543;28;20104;-72
2021/07/20 07:55:12;;;;;;;26.70;14.95;;;;;;;21.17;49.24;100104.94;5003452;28;20042;-72
2021/07/20 07:57:42;;;;;;;35.03;14.32;;;;;;;20.95;49.31;100111.34;5002319;28;20045;-72
2021/07/20 08:00:08;;;;;;;25.00;15.50;;;;;;;20.71;50.64;100103.63;5004804;28;20044;-71
2021/07/20 08:02:36;;;;;;;27.75;15.63;;;;;;;20.69;50.59;100104.72;5005113;28;20038;-71
2021/07/20 08:05:05;;;;;;;21.30;13.70;;;;;;;20.61;51.03;100104.56;5004547;28;20033;-72
2021/07/20 08:07:31;;;;;;;18.25;14.10;;;;;;;20.65;51.11;100097.94;5004309;28;20103;-73
2021/07/20 08:09:58;;;;;;;18.40;11.80;;;;;;;21.04;49.97;100106.16;5004932;28;20705;-72
2021/07/20 08:12:24;;;;;;;23.13;13.30;;;;;;;21.29;48.22;100112.88;5003241;28;20044;-71
2021/07/20 08:14:50;;;;;;;20.73;12.75;;;;;;;21.52;47.52;100110.88;5004758;28;20037;-72
2021/07/20 08:17:16;;;;;;;15.63;11.35;;;;;;;21.80;46.59;100110.03;5022473;28;20397;-71
2021/07/20 08:19:43;;;;;;;19.25;13.13;;;;;;;21.92;46.89;100105.41;5014734;28;20041;-72
2021/07/20 08:22:14;;;;;;;22.17;14.35;;;;;;;22.03;46.98;100105.28;4985211;28;20041;-72
2021/07/20 08:24:45;;;;;;;25.08;14.15;;;;;;;22.14;46.19;100104.28;4987088;28;20073;-71
2021/07/20 08:27:19;;;;;;;24.38;13.45;;;;;;;22.05;46.03;100103.31;5003342;28;20816;-72
2021/07/20 08:29:46;;;;;;;19.67;14.20;;;;;;;22.02;46.19;100100.03;5004499;28;20057;-71
2021/07/20 08:32:15;;;;;;;16.00;10.82;;;;;;;22.23;45.19;100106.13;5004376;28;20101;-73
2021/07/20 08:34:47;;;;;;;16.17;11.40;;;;;;;22.29;44.92;100102.03;5005476;28;20041;-73
2021/07/20 08:37:14;;;;;;;17.90;12.05;;;;;;;22.20;44.54;100103.75;5006291;28;20142;-73
2021/07/20 08:39:42;;;;;;;15.07;10.23;;;;;;;22.23;45.14;100102.63;5006165;28;20037;-73
2021/07/20 08:42:42;;;;;;;20.38;10.40;;;;;;;22.11;44.33;100101.03;5003186;28;20799;-72
2021/07/20 08:45:19;;;;;;;20.17;11.88;;;;;;;21.84;44.15;100105.25;4984207;28;20058;-72
2021/07/20 08:48:17;;;;;;;17.58;10.27;;;;;;;21.53;44.02;100101.81;4983912;28;20134;-74
2021/07/20 08:50:58;;;;;;;21.80;17.48;;;;;;;21.26;46.10;100108.63;4983668;28;20446;-72
2021/07/20 08:54:01;;;;;;;15.18;11.18;;;;;;;21.11;46.01;100105.47;4966490;28;20127;-72
2021/07/20 08:56:28;;;;;;;16.17;9.85;;;;;;;21.54;45.37;100107.06;4964818;28;20474;-72
2021/07/20 08:59:03;;;;;;;18.58;11.45;;;;;;;21.70;43.36;100098.47;4964530;28;20062;-72
2021/07/20 09:02:06;;;;;;;14.30;10.18;;;;;;;21.89;43.93;100110.22;4968189;28;20090;-72
2021/07/20 09:04:49;;;;;;;14.52;10.40;;;;;;;22.64;42.40;100097.84;5000893;28;20045;-72
2021/07/20 09:07:16;;;;;;;16.48;10.70;;;;;;;23.04;40.70;100099.47;5001670;28;20053;-73
2021/07/20 09:09:47;;;;;;;12.90;9.98;;;;;;;23.57;40.49;100096.88;5001309;28;20042;-73
2021/07/20 09:12:25;;;;;;;18.35;11.73;;;;;;;24.23;40.07;100094.00;5002208;28;20132;-72
2021/07/20 09:14:57;;;;;;;22.13;12.73;;;;;;;24.95;39.96;100094.66;5004539;28;20529;-75
2021/07/20 09:17:53;;;;;;;17.50;11.38;;;;;;;25.31;38.11;100099.94;5004240;28;20505;-71
2021/07/20 09:20:23;;;;;;;;;;;;;;;25.66;37.24;100098.84;5001339;28;20038;-71
2021/07/20 09:23:02;;;;;;;16.77;8.90;;;;;;;26.33;35.98;100090.63;5005629;28;19952;-72
2021/07/20 09:25:34;;;;;;;11.82;10.43;;;;;;;27.00;35.28;100084.97;4985902;28;20066;-71
2021/07/20 09:28:06;;;;;;;13.35;10.20;;;;;;;27.19;34.12;100089.97;4983742;28;20066;-71
2021/07/20 09:30:46;;;;;;;12.82;9.68;;;;;;;27.41;33.73;100082.91;4984273;28;20045;-72
2021/07/20 09:33:39;;;;;;;19.52;10.82;;;;;;;27.43;33.44;100095.47;4987900;28;20062;-71
2021/07/20 09:36:31;;;;;;;19.13;11.38;;;;;;;27.52;32.28;100094.41;4987562;28;20045;-71
2021/07/20 09:38:58;;;;;;;13.48;10.73;;;;;;;27.44;32.69;100094.41;4986815;28;20042;-71
2021/07/20 09:41:33;;;;;;;17.48;11.38;;;;;;;27.48;32.46;100093.91;4987455;28;20069;-71
2021/07/20 09:44:21;;;;;;;12.80;10.82;;;;;;;27.13;33.48;100093.34;4987885;28;20050;-72
2021/07/20 09:47:03;;;;;;;15.40;11.70;;;;;;;27.08;33.13;100094.91;4987447;28;20514;-72
2021/07/20 09:49:37;;;;;;;12.38;11.07;;;;;;;27.27;33.05;100096.38;4988088;28;20137;-72
2021/07/20 09:52:20;;;;;;;15.30;11.95;;;;;;;26.91;33.21;100092.25;4987640;28;20092;-72
2021/07/20 09:55:12;;;;;;;15.73;11.43;;;;;;;27.23;33.01;100103.16;4989558;28;20116;-72
2021/07/20 09:57:41;;;;;;;15.40;11.40;;;;;;;27.51;32.68;100096.25;4986876;28;20435;-72
2021/07/20 10:00:18;;;;;;;18.85;10.25;;;;;;;27.93;32.23;100094.16;4985656;28;20038;-73
2021/07/20 10:02:44;;;;;;;13.32;9.85;;;;;;;28.60;30.73;100091.56;4987510;28;20559;-72
2021/07/20 10:05:15;;;;;;;13.73;11.53;;;;;;;28.52;31.13;100088.91;4985671;28;20042;-72
2021/07/20 10:07:53;;;;;;;21.58;12.15;;;;;;;29.04;30.12;100088.03;4987619;28;20281;-72
2021/07/20 10:10:27;;;;;;;14.30;10.70;;;;;;;29.46;29.64;100091.06;4987796;28;20108;-70
2021/07/20 10:13:14;;;;;;;22.73;11.50;;;;;;;29.17;29.84;100089.25;5001547;28;20077;-71
2021/07/20 10:15:59;;;;;;;15.25;10.70;;;;;;;29.29;29.27;100082.31;4986916;28;20510;-72
2021/07/20 10:18:34;;;;;;;11.52;10.32;;;;;;;29.19;29.83;100077.19;4986770;28;20510;-72
2021/07/20 10:21:03;;;;;;;15.35;10.10;;;;;;;29.29;29.76;100083.16;5003908;28;20033;-72
2021/07/20 10:23:39;;;;;;;11.70;8.70;;;;;;;30.06;28.96;100089.00;5006672;28;20543;-70
2021/07/20 10:26:20;;;;;;;15.80;9.55;;;;;;;30.23;28.40;100082.25;5006283;28;20136;-72
2021/07/20 10:28:59;;;;;;;12.43;10.00;;;;;;;30.42;28.59;100082.63;5006155;28;20049;-71
2021/07/20 10:31:56;;;;;;;15.80;10.27;;;;;;;30.64;28.02;100075.25;5006260;28;20037;-72
2021/07/20 10:34:27;;;;;;;16.52;10.40;;;;;;;30.32;28.88;100078.41;5011650;28;20057;-71
2021/07/20 10:36:56;;;;;;;12.13;9.27;;;;;;;30.43;28.34;100082.44;5016131;28;20037;-74
2021/07/20 10:39:29;;;;;;;13.35;9.95;;;;;;;29.86;29.10;100084.22;5017322;28;20909;-72
2021/07/20 10:42:06;;;;;;;14.35;10.93;;;;;;;29.62;28.97;100079.97;5014450;28;20455;-72
2021/07/20 10:44:53;;;;;;;17.05;11.25;;;;;;;29.68;29.06;100084.69;5013969;28;20041;-74
2021/07/20 10:47:22;;;;;;;13.50;10.88;;;;;;;29.35;29.91;100089.69;5012836;28;20041;-73
2021/07/20 10:49:53;;;;;;;10.95;8.85;;;;;;;29.40;29.57;100078.25;5012538;28;20120;-71
2021/07/20 10:52:21;;;;;;;19.05;10.50;;;;;;;29.83;28.88;100078.31;5013736;28;20037;-73
2021/07/20 10:55:10;;;;;;;34.28;11.30;;;;;;;29.96;28.90;100084.72;5012835;28;20041;-73
2021/07/20 10:57:49;;;;;;;11.40;10.00;;;;;;;29.62;29.08;100084.56;5011847;28;20060;-73
2021/07/20 11:00:18;;;;;;;14.70;10.38;;;;;;;29.70;29.61;100069.00;5003522;28;20520;-73
2021/07/20 11:03:10;;;;;;;15.50;10.55;;;;;;;28.83;31.26;100068.94;5006472;28;20521;-72
2021/07/20 11:05:44;;;;;;;13.75;10.15;;;;;;;27.68;32.94;100064.47;4989391;28;20058;-71
2021/07/20 11:08:11;;;;;;;16.75;10.38;;;;;;;26.82;34.17;100074.34;5004843;28;20170;-73
2021/07/20 11:10:53;;;;;;;13.57;11.02;;;;;;;26.53;34.49;100086.59;5003758;28;20036;-71
2021/07/20 11:13:28;;;;;;;14.73;11.70;;;;;;;26.05;35.21;100077.47;5000259;28;20050;-73
2021/07/20 11:15:56;;;;;;;14.85;10.13;;;;;;;26.01;35.48;100070.72;5003109;28;20037;-72
2021/07/20 11:18:26;;;;;;;16.98;9.80;;;;;;;25.94;36.27;100063.44;5016998;28;20103;-71
2021/07/20 11:20:56;;;;;;;14.65;11.02;;;;;;;25.40;36.71;100069.22;5001071;28;20053;-72
2021/07/20 11:23:24;;;;;;;14.70;10.38;;;;;;;24.92;38.50;100068.88;5008195;28;20042;-73
2021/07/20 11:25:50;;;;;;;16.70;11.20;;;;;;;24.78;38.78;100067.59;5008358;28;20092;-72